الصفحة الرئيسية
METAR-TAF:

METAR-TAF

مطار :

مطار إشبيلية

إشبيلية, إسبانيا

دائرة عرض: 37-25N, خط طول: 005-54W, ارتفاع: 34 متر

مراقبة الطقس الحالي

تاريخ ووقت الإصدار 40 دقيقة قبل الساعة 01:00UTC
ريح 4 عقدة من الجنوب
درجة الحرارة
ضغط 1018 hPa
الرؤية 10 كم أو أكثر
الغيوم لا تقل 1500 م ولا وجود لمزنة ركامية السحاب الأسود

METAR: LEZL 040100Z AUTO 17004KT CAVOK ///// Q1018

زمن: 03:40 (01:40 UTC)

توقعات

تاريخ ووقت الإصدار 5ساعات و 40 دقيقة قبل الساعة 20:00UTC
التوقعات صالحة من03 الساعة 21 UTC إلى 04 الساعة 21 UTC
ريح 10 عقدة من الجنوب الغربي
الرؤية 10 كم أو أكثر
الغيوم لا تقل 1500 م ولا وجود لمزنة ركامية السحاب الأسود
أصبح
من 03 الساعة 22 UTC إلى 03 الساعة 24 UTC
ريح 2 عقدةمن اتجاهات متغيرة

TAF: LEZL 032000Z 0321/0421 22010KT CAVOK TX39/0415Z TN18/0405Z BECMG 0322/0324 VRB02KT

أرصاد الطقس والتوقعات من أكثر من 4000 مطار (تقارير الطقس للمطار METAR والتنبؤ بالطقس بالمطارTAF).

المحطات المتاحة هي النقط الصفراء والحمراء على الخريطة.

حرك المؤشر فوق النقطة لمعرفة اسم المحطة.

ثم انقر لمعرفة أرصاد وتوقعات الطقس.

لتغيير الخارطة: اضغط على الأزرار الخضراء مع رمز الصليب الأسود للتكبير. على الزر الأخضر مع شرطة للتصغير، أو على الأسهم الخضراء للخرائط المجاورة.


METAR-TAF: